createdAt,value
2022-09-23T00:02:13.517Z,96465.25
2022-09-23T00:05:15.668Z,96468.13
2022-09-23T00:08:17.294Z,96467.28
2022-09-23T00:11:24.977Z,96464.75
2022-09-23T00:14:27.691Z,96463.44
2022-09-23T00:17:30.843Z,96471.41
2022-09-23T00:20:34.336Z,96466.50
2022-09-23T00:23:36.644Z,96469.25
2022-09-23T00:26:38.230Z,96466.16
2022-09-23T00:29:39.964Z,96460.84
2022-09-23T00:32:41.568Z,96472.53
2022-09-23T00:35:43.195Z,96458.66
2022-09-23T00:38:45.307Z,96454.47
2022-09-23T00:41:47.004Z,96457.22
2022-09-23T00:44:56.820Z,96447.72
2022-09-23T00:48:02.656Z,96445.31
2022-09-23T00:51:05.109Z,96441.09
2022-09-23T00:54:07.423Z,96444.00
2022-09-23T00:57:11.187Z,96432.81
2022-09-23T01:00:15.924Z,96439.19
2022-09-23T01:03:19.691Z,96433.88
2022-09-23T01:06:21.560Z,96428.75
2022-09-23T01:09:24.344Z,96426.19
2022-09-23T01:12:59.561Z,96422.72
2022-09-23T01:16:13.528Z,96421.13
2022-09-23T01:19:30.369Z,96415.13
2022-09-23T01:22:54.249Z,96417.06
2022-09-23T01:26:03.941Z,96412.72
2022-09-23T01:29:17.865Z,96407.81
2022-09-23T01:32:46.941Z,96421.16
2022-09-23T01:35:51.512Z,96417.78
2022-09-23T01:39:15.327Z,96417.06
2022-09-23T01:42:35.273Z,96410.91
2022-09-23T01:45:47.408Z,96398.78
2022-09-23T01:48:57.727Z,96404.31
2022-09-23T01:52:07.606Z,96399.13
2022-09-23T01:55:24.960Z,96402.88
2022-09-23T01:58:34.609Z,96403.13
2022-09-23T02:02:01.599Z,96396.41
2022-09-23T02:05:09.694Z,96404.44
2022-09-23T02:08:18.138Z,96397.84
2022-09-23T02:11:20.069Z,96395.41
2022-09-23T02:14:29.044Z,96398.06
2022-09-23T02:17:37.158Z,96386.91
2022-09-23T02:20:42.149Z,96394.94
2022-09-23T02:23:48.421Z,96391.56
2022-09-23T02:26:54.607Z,96404.06
2022-09-23T02:30:08.930Z,96396.41
2022-09-23T02:33:37.620Z,96407.22
2022-09-23T02:37:07.520Z,96406.63
2022-09-23T02:40:15.823Z,96403.47
2022-09-23T02:43:21.242Z,96392.19
2022-09-23T02:46:23.341Z,96395.91
2022-09-23T02:49:29.334Z,96397.81
2022-09-23T02:52:30.957Z,96390.25
2022-09-23T02:55:32.633Z,96399.97
2022-09-23T02:58:34.596Z,96385.31
2022-09-23T03:01:48.266Z,96390.72
2022-09-23T03:05:05.223Z,96391.78
2022-09-23T03:08:29.242Z,96394.69
2022-09-23T03:11:32.373Z,96388.66
2022-09-23T03:14:53.965Z,96382.66
2022-09-23T03:18:15.623Z,96384.69
2022-09-23T03:21:26.964Z,96377.00
2022-09-23T03:24:32.177Z,96386.97
2022-09-23T03:27:36.564Z,96381.06
2022-09-23T03:30:40.213Z,96373.34
2022-09-23T03:33:47.073Z,96381.44
2022-09-23T03:37:18.987Z,96373.81
2022-09-23T03:40:35.300Z,96379.38
2022-09-23T03:43:38.962Z,96370.81
2022-09-23T03:46:49.591Z,96377.03
2022-09-23T03:49:52.116Z,96377.19
2022-09-23T03:52:54.096Z,96379.00
2022-09-23T03:55:55.655Z,96372.13
2022-09-23T03:58:57.288Z,96371.28
2022-09-23T04:02:00.041Z,96364.41
2022-09-23T04:05:01.763Z,96372.22
2022-09-23T04:08:03.569Z,96362.75
2022-09-23T04:11:05.463Z,96369.84
2022-09-23T04:14:07.228Z,96363.81
2022-09-23T04:17:09.410Z,96371.84
2022-09-23T04:20:11.110Z,96369.47
2022-09-23T04:23:12.758Z,96367.78
2022-09-23T04:26:15.213Z,96367.88
2022-09-23T04:29:16.921Z,96370.63
2022-09-23T04:32:18.510Z,96369.91
2022-09-23T04:35:20.174Z,96360.63
2022-09-23T04:38:22.136Z,96373.75
2022-09-23T04:41:23.930Z,96367.72
2022-09-23T04:44:27.703Z,96371.47
2022-09-23T04:47:31.994Z,96362.91
2022-09-23T04:50:33.956Z,96365.66
2022-09-23T04:53:37.132Z,96366.75
2022-09-23T04:56:39.819Z,96369.00
2022-09-23T04:59:41.544Z,96379.31
2022-09-23T05:02:45.304Z,96376.78
2022-09-23T05:05:46.892Z,96376.09
2022-09-23T05:08:51.256Z,96379.66
2022-09-23T05:11:52.957Z,96376.19
2022-09-23T05:14:54.631Z,96372.69
2022-09-23T05:17:59.723Z,96373.75
2022-09-23T05:21:03.848Z,96375.44
2022-09-23T05:24:05.610Z,96374.84
2022-09-23T05:27:07.840Z,96383.16
2022-09-23T05:30:10.550Z,96375.34
2022-09-23T05:33:14.979Z,96376.69
2022-09-23T05:36:20.576Z,96379.22
2022-09-23T05:39:22.256Z,96374.78
2022-09-23T05:42:24.116Z,96378.97
2022-09-23T05:45:26.971Z,96379.59
2022-09-23T05:48:33.648Z,96379.38
2022-09-23T05:51:35.997Z,96377.44
2022-09-23T05:54:37.945Z,96370.03
2022-09-23T05:57:39.735Z,96374.97
2022-09-23T06:00:43.425Z,96376.28
2022-09-23T06:03:48.990Z,96376.69
2022-09-23T06:06:50.618Z,96366.09
2022-09-23T06:09:53.998Z,96374.19
2022-09-23T06:12:55.734Z,96376.47
2022-09-23T06:16:00.402Z,96369.16
2022-09-23T06:19:06.706Z,96371.22
2022-09-23T06:22:08.766Z,96363.16
2022-09-23T06:25:11.321Z,96361.84
2022-09-23T06:28:13.283Z,96369.66
2022-09-23T06:31:16.888Z,96367.28
2022-09-23T06:34:19.351Z,96366.91
2022-09-23T06:37:21.382Z,96372.34
2022-09-23T06:40:23.498Z,96362.09
2022-09-23T06:43:26.410Z,96377.38
2022-09-23T06:46:28.115Z,96365.56
2022-09-23T06:49:30.032Z,96367.28
2022-09-23T06:52:31.880Z,96363.03
2022-09-23T06:55:33.773Z,96358.34
2022-09-23T06:58:38.055Z,96361.94
2022-09-23T07:01:39.890Z,96354.19
2022-09-23T07:04:41.761Z,96351.91
2022-09-23T07:07:44.746Z,96364.88
2022-09-23T07:10:51.977Z,96373.72
2022-09-23T07:13:53.877Z,96373.84
2022-09-23T07:16:55.630Z,96376.53
2022-09-23T07:19:58.554Z,96355.34
2022-09-23T07:23:00.535Z,96375.28
2022-09-23T07:26:04.028Z,96381.63
2022-09-23T07:29:05.800Z,96384.47
2022-09-23T07:32:13.811Z,96365.78
2022-09-23T07:35:16.500Z,96376.84
2022-09-23T07:38:18.317Z,96375.91
2022-09-23T07:41:20.004Z,96374.28
2022-09-23T07:44:21.984Z,96377.00
2022-09-23T07:47:23.650Z,96375.94
2022-09-23T07:50:25.326Z,96374.19
2022-09-23T07:53:32.178Z,96371.84
2022-09-23T07:56:35.172Z,96371.34
2022-09-23T07:59:36.848Z,96366.50
2022-09-23T08:02:38.688Z,96367.09
2022-09-23T08:05:41.164Z,96373.13
2022-09-23T08:08:43.814Z,96360.97
2022-09-23T08:11:45.816Z,96364.22
2022-09-23T08:14:47.486Z,96359.03
2022-09-23T08:17:49.377Z,96359.47
2022-09-23T08:20:51.432Z,96369.50
2022-09-23T08:23:53.161Z,96370.63
2022-09-23T08:26:54.909Z,96373.28
2022-09-23T08:29:56.782Z,96371.59
2022-09-23T08:32:58.928Z,96372.44
2022-09-23T08:36:03.107Z,96352.38
2022-09-23T08:39:08.032Z,96364.69
2022-09-23T08:42:27.940Z,96357.19
2022-09-23T08:45:29.754Z,96357.69
2022-09-23T08:48:38.628Z,96347.84
2022-09-23T08:51:46.376Z,96350.16
2022-09-23T08:54:53.173Z,96344.47
2022-09-23T08:58:24.638Z,96351.44
2022-09-23T09:01:57.925Z,96353.47
2022-09-23T09:05:03.693Z,96347.88
2022-09-23T09:08:05.654Z,96347.69
2022-09-23T09:11:07.932Z,96352.63
2022-09-23T09:14:24.857Z,96345.38
2022-09-23T09:17:36.908Z,96349.16
2022-09-23T09:21:08.575Z,96333.59
2022-09-23T09:24:31.614Z,96331.19
2022-09-23T09:27:42.189Z,96334.78
2022-09-23T09:30:48.395Z,96331.19
2022-09-23T09:33:58.180Z,96325.75
2022-09-23T09:37:11.539Z,96324.75
2022-09-23T09:40:15.137Z,96319.16
2022-09-23T09:43:23.256Z,96320.53
2022-09-23T09:46:24.860Z,96317.25
2022-09-23T09:49:42.632Z,96307.28
2022-09-23T09:52:44.165Z,96309.31
2022-09-23T09:55:48.365Z,96307.50
2022-09-23T09:58:55.827Z,96301.34
2022-09-23T10:02:20.481Z,96296.19
2022-09-23T10:05:30.003Z,96297.84
2022-09-23T10:08:35.247Z,96291.00
2022-09-23T10:11:37.846Z,96289.34
2022-09-23T10:14:39.492Z,96281.16
2022-09-23T10:17:41.349Z,96279.16
2022-09-23T10:20:43.113Z,96280.63
2022-09-23T10:23:48.006Z,96274.25
2022-09-23T10:27:04.422Z,96273.72
2022-09-23T10:30:21.599Z,96270.84
2022-09-23T10:33:27.913Z,96271.31
2022-09-23T10:36:33.145Z,96259.38
2022-09-23T10:39:53.389Z,96260.34
2022-09-23T10:43:23.811Z,96264.66
2022-09-23T10:46:39.087Z,96263.28
2022-09-23T10:50:11.844Z,96263.22
2022-09-23T10:53:43.665Z,96256.16
2022-09-23T10:57:38.158Z,96258.44
2022-09-23T11:00:55.188Z,96259.25
2022-09-23T11:04:12.491Z,96248.44
2022-09-23T11:07:49.658Z,96243.31
2022-09-23T11:11:22.420Z,96239.19
2022-09-23T11:14:51.634Z,96236.09
2022-09-23T11:18:07.999Z,96228.75
2022-09-23T11:21:24.920Z,96232.69
2022-09-23T11:25:08.990Z,96226.13
2022-09-23T11:28:44.694Z,96219.09
2022-09-23T11:32:07.852Z,96216.25
2022-09-23T11:35:24.375Z,96220.16
2022-09-23T11:38:40.870Z,96207.44
2022-09-23T11:41:44.189Z,96207.34
2022-09-23T11:44:54.254Z,96209.28
2022-09-23T11:48:01.140Z,96196.72
2022-09-23T11:51:08.283Z,96186.69
2022-09-23T11:54:20.902Z,96188.06
2022-09-23T11:57:49.318Z,96177.38
2022-09-23T12:01:02.380Z,96176.47
2022-09-23T12:04:19.935Z,96178.03
2022-09-23T12:07:28.734Z,96174.75
2022-09-23T12:11:01.509Z,96170.63
2022-09-23T12:14:21.581Z,96168.81
2022-09-23T12:17:54.542Z,96166.22
2022-09-23T12:21:49.689Z,96163.22
2022-09-23T12:25:29.744Z,96158.91
2022-09-23T12:28:41.767Z,96151.69
2022-09-23T12:31:46.708Z,96156.72
2022-09-23T12:34:52.022Z,96154.06
2022-09-23T12:37:54.229Z,96153.06
2022-09-23T12:40:58.626Z,96146.06
2022-09-23T12:44:28.430Z,96133.06
2022-09-23T12:47:37.059Z,96132.06
2022-09-23T12:51:17.715Z,96129.22
2022-09-23T12:54:24.816Z,96126.97
2022-09-23T12:57:35.530Z,96119.16
2022-09-23T13:00:37.205Z,96121.44
2022-09-23T13:04:04.052Z,96118.75
2022-09-23T13:07:08.407Z,96113.00
2022-09-23T13:10:18.295Z,96103.72
2022-09-23T13:13:29.723Z,96106.00
2022-09-23T13:16:41.059Z,96092.97
2022-09-23T13:19:45.195Z,96092.13
2022-09-23T13:22:49.531Z,96086.53
2022-09-23T13:25:54.086Z,96083.41
2022-09-23T13:28:58.485Z,96077.22
2022-09-23T13:32:01.762Z,96064.31
2022-09-23T13:35:12.781Z,96072.66
2022-09-23T13:38:26.162Z,96072.03
2022-09-23T13:41:28.645Z,96059.53
2022-09-23T13:44:30.501Z,96067.44
2022-09-23T13:47:34.815Z,96065.78
2022-09-23T13:50:40.902Z,96067.44
2022-09-23T13:53:42.600Z,96051.88
2022-09-23T13:56:49.030Z,96054.38
2022-09-23T13:59:50.687Z,96051.44
2022-09-23T14:02:55.922Z,96051.22
2022-09-23T14:06:00.169Z,96057.28
2022-09-23T14:09:02.747Z,96059.13
2022-09-23T14:12:06.401Z,96051.22
2022-09-23T14:15:14.774Z,96044.91
2022-09-23T14:18:28.910Z,96054.53
2022-09-23T14:21:40.558Z,96035.66
2022-09-23T14:24:42.323Z,96038.03
2022-09-23T14:27:45.008Z,96033.38
2022-09-23T14:30:48.125Z,96029.97
2022-09-23T14:33:49.834Z,96029.81
2022-09-23T14:37:10.128Z,96029.03
2022-09-23T14:40:14.998Z,96017.84
2022-09-23T14:43:19.390Z,96021.56
2022-09-23T14:46:24.601Z,96016.38
2022-09-23T14:49:27.417Z,96009.56
2022-09-23T14:52:29.100Z,96008.53
2022-09-23T14:55:31.516Z,96008.06
2022-09-23T14:58:52.396Z,96010.56
2022-09-23T15:01:54.651Z,96001.25
2022-09-23T15:05:27.588Z,96008.25
2022-09-23T15:08:29.496Z,96009.28
2022-09-23T15:11:31.287Z,96006.19
2022-09-23T15:14:41.069Z,96003.16
2022-09-23T15:17:43.778Z,95989.38
2022-09-23T15:20:54.195Z,96001.00
2022-09-23T15:23:57.386Z,96008.84
2022-09-23T15:26:59.100Z,96005.91
2022-09-23T15:30:17.099Z,96007.84
2022-09-23T15:33:18.896Z,96016.22
2022-09-23T15:36:25.964Z,96011.78
2022-09-23T15:39:35.738Z,96013.19
2022-09-23T15:42:38.460Z,96000.13
2022-09-23T15:46:00.009Z,96007.63
2022-09-23T15:49:12.795Z,96009.72
2022-09-23T15:52:15.965Z,96005.50
2022-09-23T15:55:21.869Z,96007.91
2022-09-23T15:58:25.171Z,96010.91
2022-09-23T16:01:31.681Z,96013.88
2022-09-23T16:04:33.465Z,96008.94
2022-09-23T16:07:36.420Z,96010.84
2022-09-23T16:10:38.192Z,96006.31
2022-09-23T16:13:39.961Z,96008.63
2022-09-23T16:16:45.109Z,96004.66
2022-09-23T16:19:46.850Z,95999.25
2022-09-23T16:23:04.625Z,95993.28
2022-09-23T16:26:30.306Z,95999.09
2022-09-23T16:29:31.899Z,95996.78
2022-09-23T16:32:33.498Z,95998.47
2022-09-23T16:35:37.263Z,95991.19
2022-09-23T16:38:38.929Z,95997.81
2022-09-23T16:41:41.134Z,96009.25
2022-09-23T16:44:42.787Z,96008.59
2022-09-23T16:47:46.185Z,96020.97
2022-09-23T16:50:47.806Z,96019.25
2022-09-23T16:53:51.245Z,96026.09
2022-09-23T16:56:55.142Z,96025.81
2022-09-23T17:00:15.434Z,96012.44
2022-09-23T17:03:55.800Z,96013.03
2022-09-23T17:06:58.473Z,96019.75
2022-09-23T17:10:00.308Z,96030.06
2022-09-23T17:13:02.195Z,96014.13
2022-09-23T17:16:06.645Z,96007.81
2022-09-23T17:19:10.425Z,96017.03
2022-09-23T17:22:12.351Z,96021.69
2022-09-23T17:25:14.230Z,96014.91
2022-09-23T17:28:16.074Z,96012.06
2022-09-23T17:31:18.737Z,96019.16
2022-09-23T17:34:20.530Z,96022.19
2022-09-23T17:37:22.229Z,96022.03
2022-09-23T17:40:26.131Z,96016.38
2022-09-23T17:43:29.148Z,96030.41
2022-09-23T17:46:32.060Z,96026.06
2022-09-23T17:49:35.380Z,96033.19
2022-09-23T17:52:37.279Z,96027.38
2022-09-23T17:55:38.932Z,96027.47
2022-09-23T17:58:41.620Z,96029.84
2022-09-23T18:01:43.426Z,96020.97
2022-09-23T18:04:45.383Z,96015.69
2022-09-23T18:07:47.362Z,96017.22
2022-09-23T18:10:49.165Z,96007.94
2022-09-23T18:14:00.993Z,96015.53
2022-09-23T18:17:02.752Z,96013.66
2022-09-23T18:20:05.090Z,96017.03
2022-09-23T18:23:07.019Z,96025.44
2022-09-23T18:26:23.661Z,96025.50
2022-09-23T18:29:26.018Z,96020.56
2022-09-23T18:32:27.756Z,96018.78
2022-09-23T18:35:30.692Z,96028.19
2022-09-23T18:38:32.783Z,96023.72
2022-09-23T18:41:35.423Z,96024.72
2022-09-23T18:44:37.104Z,96018.13
2022-09-23T18:47:57.349Z,96017.44
2022-09-23T18:50:59.112Z,96020.00
2022-09-23T18:54:02.377Z,96014.69
2022-09-23T18:57:04.217Z,96019.09
2022-09-23T19:00:06.794Z,96022.28
2022-09-23T19:03:08.450Z,96028.50
2022-09-23T19:06:11.285Z,96020.16
2022-09-23T19:09:14.744Z,96028.53
2022-09-23T19:12:16.421Z,96021.69
2022-09-23T19:15:18.094Z,96029.56
2022-09-23T19:18:20.957Z,96027.59
2022-09-23T19:21:23.521Z,96025.56
2022-09-23T19:24:25.202Z,96029.13
2022-09-23T19:27:27.031Z,96036.66
2022-09-23T19:30:28.689Z,96028.16
2022-09-23T19:33:30.318Z,96035.50
2022-09-23T19:36:37.831Z,96035.19
2022-09-23T19:39:40.859Z,96034.69
2022-09-23T19:42:43.218Z,96022.00
2022-09-23T19:45:52.548Z,96019.69
2022-09-23T19:48:54.325Z,96025.38
2022-09-23T19:51:56.566Z,96004.13
2022-09-23T19:54:58.451Z,96014.34
2022-09-23T19:58:00.418Z,95997.47
2022-09-23T20:01:07.452Z,96004.34
2022-09-23T20:04:09.363Z,95998.84
2022-09-23T20:07:11.234Z,96000.66
2022-09-23T20:10:13.558Z,95994.50
2022-09-23T20:13:17.117Z,96003.34
2022-09-23T20:16:20.132Z,96001.84
2022-09-23T20:19:21.911Z,96001.38
2022-09-23T20:22:33.185Z,95996.66
2022-09-23T20:25:55.142Z,95995.88
2022-09-23T20:28:56.977Z,95996.34
2022-09-23T20:31:59.289Z,95977.66
2022-09-23T20:35:04.147Z,95985.34
2022-09-23T20:38:08.080Z,95979.69
2022-09-23T20:41:10.107Z,95974.31
2022-09-23T20:44:12.607Z,95977.16
2022-09-23T20:47:17.017Z,95983.34
2022-09-23T20:50:19.463Z,95985.66
2022-09-23T20:53:23.402Z,95990.00
2022-09-23T20:56:25.701Z,95965.31
2022-09-23T20:59:27.839Z,95965.97
2022-09-23T21:02:29.750Z,95969.31
2022-09-23T21:05:33.735Z,95969.31
2022-09-23T21:08:36.855Z,95953.28
2022-09-23T21:11:38.620Z,95962.28
2022-09-23T21:14:40.742Z,95961.66
2022-09-23T21:17:43.418Z,95964.31
2022-09-23T21:20:54.171Z,95964.47
2022-09-23T21:24:17.185Z,95958.47
2022-09-23T21:27:20.093Z,95963.13
2022-09-23T21:30:22.301Z,95965.16
2022-09-23T21:33:23.990Z,95957.31
2022-09-23T21:36:27.447Z,95952.78
2022-09-23T21:39:29.177Z,95975.00
2022-09-23T21:42:30.884Z,95963.47
2022-09-23T21:45:32.685Z,95949.81
2022-09-23T21:48:37.269Z,95956.31
2022-09-23T21:51:41.357Z,95952.94
2022-09-23T21:54:43.290Z,95957.47
2022-09-23T21:57:46.175Z,95955.47
2022-09-23T22:00:47.861Z,95954.78
2022-09-23T22:03:52.380Z,95953.94
2022-09-23T22:06:54.084Z,95955.13
2022-09-23T22:09:55.727Z,95948.28
2022-09-23T22:12:57.325Z,95943.94
2022-09-23T22:16:06.181Z,95946.78
2022-09-23T22:19:10.607Z,95947.97
2022-09-23T22:22:14.427Z,95948.28
2022-09-23T22:25:16.580Z,95944.09
2022-09-23T22:28:36.831Z,95951.28
2022-09-23T22:31:57.095Z,95950.47
2022-09-23T22:34:59.250Z,95950.78
2022-09-23T22:38:01.094Z,95942.09
2022-09-23T22:41:02.945Z,95937.59
2022-09-23T22:44:05.270Z,95945.75
2022-09-23T22:47:08.119Z,95934.91
2022-09-23T22:50:09.996Z,95940.63
2022-09-23T22:53:12.298Z,95939.78
2022-09-23T22:56:14.160Z,95935.44
2022-09-23T22:59:15.822Z,95936.44
2022-09-23T23:02:19.564Z,95932.09
2022-09-23T23:05:21.225Z,95936.72
2022-09-23T23:08:23.635Z,95930.72
2022-09-23T23:11:25.361Z,95928.22
2022-09-23T23:14:30.794Z,95926.38
2022-09-23T23:17:33.115Z,95929.22
2022-09-23T23:20:34.743Z,95916.19
2022-09-23T23:23:38.701Z,95926.06
2022-09-23T23:26:40.756Z,95929.03
2022-09-23T23:29:42.406Z,95926.38
2022-09-23T23:32:44.065Z,95914.00
2022-09-23T23:35:51.342Z,95913.00
2022-09-23T23:38:53.233Z,95927.53
2022-09-23T23:41:56.229Z,95923.38
2022-09-23T23:44:58.053Z,95920.69
2022-09-23T23:47:59.675Z,95913.16
2022-09-23T23:51:02.795Z,95917.50
2022-09-23T23:54:04.774Z,95913.00
2022-09-23T23:57:06.635Z,95910.34
